createdAt,value
2019-05-18T00:01:22.442Z,13.60
2019-05-18T00:02:54.694Z,13.60
2019-05-18T00:04:26.941Z,13.60
2019-05-18T00:05:59.155Z,13.60
2019-05-18T00:07:31.320Z,13.50
2019-05-18T00:09:05.113Z,13.50
2019-05-18T00:10:37.301Z,13.50
2019-05-18T00:12:09.446Z,13.40
2019-05-18T00:13:41.696Z,13.40
2019-05-18T00:15:14.017Z,13.40
2019-05-18T00:16:46.241Z,13.30
2019-05-18T00:18:18.477Z,13.40
2019-05-18T00:19:50.572Z,13.30
2019-05-18T00:21:22.667Z,13.20
2019-05-18T00:22:54.944Z,13.20
2019-05-18T00:24:27.196Z,13.20
2019-05-18T00:25:59.434Z,13.20
2019-05-18T00:27:31.572Z,13.20
2019-05-18T00:29:03.914Z,13.20
2019-05-18T00:30:36.128Z,13.20
2019-05-18T00:32:08.495Z,13.20
2019-05-18T00:33:40.856Z,13.20
2019-05-18T00:35:16.690Z,13.20
2019-05-18T00:36:48.610Z,13.20
2019-05-18T00:38:20.821Z,13.20
2019-05-18T00:39:52.958Z,13.20
2019-05-18T00:41:25.192Z,13.10
2019-05-18T00:42:57.506Z,13.10
2019-05-18T00:44:29.611Z,13.10
2019-05-18T00:46:01.764Z,13.10
2019-05-18T00:47:41.564Z,13.10
2019-05-18T00:49:08.226Z,13.10
2019-05-18T00:50:40.527Z,13.10
2019-05-18T00:52:12.784Z,13.00
2019-05-18T00:53:44.879Z,13.00
2019-05-18T00:55:17.137Z,13.00
2019-05-18T00:56:49.416Z,12.90
2019-05-18T00:58:21.676Z,12.90
2019-05-18T00:59:53.841Z,12.90
2019-05-18T01:01:26.042Z,12.90
2019-05-18T01:02:58.240Z,12.90
2019-05-18T01:04:30.487Z,12.90
2019-05-18T01:06:02.779Z,12.90
2019-05-18T01:07:34.991Z,12.90
2019-05-18T01:09:07.257Z,12.90
2019-05-18T01:10:39.545Z,12.90
2019-05-18T01:12:11.807Z,13.00
2019-05-18T01:13:44.039Z,12.90
2019-05-18T01:15:16.811Z,12.90
2019-05-18T01:16:48.933Z,12.90
2019-05-18T01:18:21.016Z,12.90
2019-05-18T01:19:53.256Z,12.80
2019-05-18T01:21:25.517Z,12.80
2019-05-18T01:22:57.926Z,12.80
2019-05-18T01:24:30.179Z,12.80
2019-05-18T01:26:02.433Z,12.80
2019-05-18T01:27:34.564Z,12.70
2019-05-18T01:29:06.908Z,12.70
2019-05-18T01:30:39.149Z,12.70
2019-05-18T01:32:11.452Z,12.70
2019-05-18T01:33:43.696Z,12.70
2019-05-18T01:35:16.055Z,12.70
2019-05-18T01:36:48.203Z,12.80
2019-05-18T01:38:20.315Z,12.80
2019-05-18T01:39:52.367Z,12.80
2019-05-18T01:41:24.666Z,12.80
2019-05-18T01:42:57.022Z,12.90
2019-05-18T01:44:29.228Z,12.90
2019-05-18T01:46:01.446Z,12.90
2019-05-18T01:47:33.541Z,12.90
2019-05-18T01:49:05.632Z,12.90
2019-05-18T01:50:37.750Z,12.90
2019-05-18T01:52:09.971Z,13.00
2019-05-18T01:53:42.243Z,12.90
2019-05-18T01:55:14.705Z,13.00
2019-05-18T01:56:46.816Z,13.00
2019-05-18T01:58:19.093Z,13.00
2019-05-18T01:59:51.345Z,13.00
2019-05-18T02:01:23.592Z,13.00
2019-05-18T02:02:55.877Z,13.00
2019-05-18T02:04:28.165Z,13.00
2019-05-18T02:06:00.455Z,13.00
2019-05-18T02:07:32.697Z,13.00
2019-05-18T02:09:06.996Z,13.00
2019-05-18T02:10:39.264Z,13.00
2019-05-18T02:12:11.418Z,13.00
2019-05-18T02:13:43.643Z,13.00
2019-05-18T02:15:15.740Z,13.00
2019-05-18T02:16:47.868Z,13.00
2019-05-18T02:18:28.693Z,13.00
2019-05-18T02:19:54.216Z,13.00
2019-05-18T02:21:26.364Z,13.00
2019-05-18T02:22:58.726Z,13.00
2019-05-18T02:24:30.932Z,13.00
2019-05-18T02:26:03.178Z,13.00
2019-05-18T02:27:35.470Z,13.00
2019-05-18T02:29:07.540Z,13.00
2019-05-18T02:30:39.667Z,13.00
2019-05-18T02:32:11.876Z,13.00
2019-05-18T02:33:44.147Z,12.90
2019-05-18T02:35:16.394Z,12.90
2019-05-18T02:36:48.517Z,12.90
2019-05-18T02:38:20.628Z,12.90
2019-05-18T02:39:54.416Z,13.00
2019-05-18T02:41:26.541Z,13.00
2019-05-18T02:42:58.891Z,13.00
2019-05-18T02:44:31.017Z,12.90
2019-05-18T02:46:03.183Z,12.90
2019-05-18T02:47:35.435Z,12.90
2019-05-18T02:49:07.678Z,12.90
2019-05-18T02:50:40.008Z,12.90
2019-05-18T02:52:12.114Z,12.90
2019-05-18T02:53:44.276Z,12.80
2019-05-18T02:55:16.430Z,12.80
2019-05-18T02:56:48.618Z,12.70
2019-05-18T02:58:20.693Z,12.60
2019-05-18T02:59:52.937Z,12.60
2019-05-18T03:01:25.098Z,12.50
2019-05-18T03:02:57.332Z,12.50
2019-05-18T03:04:29.719Z,12.50
2019-05-18T03:06:01.963Z,12.50
2019-05-18T03:07:34.346Z,12.40
2019-05-18T03:09:06.668Z,12.40
2019-05-18T03:10:38.833Z,12.40
2019-05-18T03:12:10.977Z,12.40
2019-05-18T03:13:43.188Z,12.40
2019-05-18T03:15:15.508Z,12.30
2019-05-18T03:16:47.735Z,12.30
2019-05-18T03:18:19.847Z,12.30
2019-05-18T03:19:52.220Z,12.20
2019-05-18T03:21:24.697Z,12.20
2019-05-18T03:22:56.971Z,12.20
2019-05-18T03:24:29.081Z,12.20
2019-05-18T03:26:01.144Z,12.10
2019-05-18T03:27:33.279Z,12.10
2019-05-18T03:29:05.556Z,12.10
2019-05-18T03:30:37.704Z,12.10
2019-05-18T03:32:10.011Z,12.00
2019-05-18T03:33:42.421Z,12.00
2019-05-18T03:35:14.647Z,12.00
2019-05-18T03:36:46.867Z,12.00
2019-05-18T03:38:19.077Z,12.00
2019-05-18T03:39:51.413Z,12.00
2019-05-18T03:41:23.636Z,11.90
2019-05-18T03:42:55.764Z,11.90
2019-05-18T03:44:27.993Z,11.90
2019-05-18T03:46:00.237Z,11.90
2019-05-18T03:47:32.321Z,11.80
2019-05-18T03:49:04.548Z,11.80
2019-05-18T03:50:36.643Z,11.80
2019-05-18T03:52:09.010Z,11.80
2019-05-18T03:53:41.276Z,11.70
2019-05-18T03:55:13.402Z,11.70
2019-05-18T03:56:45.609Z,11.70
2019-05-18T03:58:17.868Z,11.70
2019-05-18T03:59:50.000Z,11.70
2019-05-18T04:01:22.227Z,11.80
2019-05-18T04:02:54.467Z,11.80
2019-05-18T04:04:26.581Z,11.80
2019-05-18T04:05:58.685Z,11.80
2019-05-18T04:07:30.808Z,11.80
2019-05-18T04:09:04.582Z,11.80
2019-05-18T04:10:36.821Z,11.80
2019-05-18T04:12:09.043Z,11.80
2019-05-18T04:13:41.265Z,11.80
2019-05-18T04:15:13.689Z,11.80
2019-05-18T04:16:45.789Z,11.70
2019-05-18T04:18:17.892Z,11.70
2019-05-18T04:19:50.178Z,11.70
2019-05-18T04:21:22.484Z,11.70
2019-05-18T04:22:54.688Z,11.70
2019-05-18T04:24:26.912Z,11.70
2019-05-18T04:25:59.019Z,11.70
2019-05-18T04:27:31.262Z,11.70
2019-05-18T04:29:03.509Z,11.70
2019-05-18T04:30:35.581Z,11.70
2019-05-18T04:32:07.708Z,11.70
2019-05-18T04:33:39.988Z,11.70
2019-05-18T04:35:12.169Z,11.70
2019-05-18T04:36:44.493Z,11.70
2019-05-18T04:38:16.742Z,11.70
2019-05-18T04:39:49.031Z,11.70
2019-05-18T04:41:21.253Z,11.70
2019-05-18T04:42:53.350Z,11.70
2019-05-18T04:44:25.411Z,11.70
2019-05-18T04:45:57.531Z,11.70
2019-05-18T04:47:29.852Z,11.70
2019-05-18T04:49:02.015Z,11.80
2019-05-18T04:50:34.373Z,11.90
2019-05-18T04:52:06.482Z,11.90
2019-05-18T04:53:38.698Z,11.90
2019-05-18T04:55:10.885Z,12.00
2019-05-18T04:56:43.384Z,12.00
2019-05-18T04:58:15.679Z,12.00
2019-05-18T04:59:47.923Z,12.10
2019-05-18T05:01:20.055Z,12.10
2019-05-18T05:02:52.308Z,12.20
2019-05-18T05:04:24.571Z,12.20
2019-05-18T05:05:56.706Z,12.20
2019-05-18T05:07:28.924Z,12.30
2019-05-18T05:09:01.162Z,12.30
2019-05-18T05:10:33.449Z,12.40
2019-05-18T05:12:05.577Z,12.40
2019-05-18T05:13:37.803Z,12.40
2019-05-18T05:15:10.040Z,12.50
2019-05-18T05:16:42.154Z,12.50
2019-05-18T05:18:14.362Z,12.60
2019-05-18T05:19:46.481Z,12.60
2019-05-18T05:21:18.717Z,12.70
2019-05-18T05:22:50.857Z,12.80
2019-05-18T05:24:23.071Z,12.80
2019-05-18T05:25:55.146Z,12.90
2019-05-18T05:27:27.261Z,12.90
2019-05-18T05:28:59.442Z,13.00
2019-05-18T05:30:31.740Z,13.00
2019-05-18T05:32:03.972Z,13.10
2019-05-18T05:33:36.236Z,13.20
2019-05-18T05:35:08.480Z,13.20
2019-05-18T05:36:40.762Z,13.30
2019-05-18T05:38:13.008Z,13.30
2019-05-18T05:39:45.350Z,13.40
2019-05-18T05:41:17.516Z,13.40
2019-05-18T05:42:49.612Z,13.50
2019-05-18T05:44:21.875Z,13.50
2019-05-18T05:45:54.122Z,13.60
2019-05-18T05:47:26.393Z,13.70
2019-05-18T05:48:58.641Z,13.70
2019-05-18T05:50:35.803Z,13.80
2019-05-18T05:52:04.974Z,13.90
2019-05-18T05:53:37.114Z,14.00
2019-05-18T05:55:11.357Z,14.10
2019-05-18T05:56:43.605Z,14.20
2019-05-18T05:58:15.720Z,14.30
2019-05-18T05:59:47.977Z,14.40
2019-05-18T06:01:20.215Z,14.40
2019-05-18T06:02:52.442Z,14.50
2019-05-18T06:04:24.661Z,14.50
2019-05-18T06:05:56.934Z,14.60
2019-05-18T06:07:29.254Z,14.60
2019-05-18T06:09:01.371Z,14.70
2019-05-18T06:10:33.578Z,14.70
2019-05-18T06:12:05.702Z,14.70
2019-05-18T06:13:37.954Z,14.80
2019-05-18T06:15:11.394Z,14.80
2019-05-18T06:16:43.504Z,14.90
2019-05-18T06:18:15.649Z,14.90
2019-05-18T06:19:47.842Z,14.90
2019-05-18T06:21:19.970Z,14.90
2019-05-18T06:22:52.248Z,14.90
2019-05-18T06:24:24.452Z,15.00
2019-05-18T06:25:56.727Z,15.00
2019-05-18T06:27:28.948Z,15.10
2019-05-18T06:29:01.098Z,15.10
2019-05-18T06:30:33.347Z,15.10
2019-05-18T06:32:05.454Z,15.20
2019-05-18T06:33:37.606Z,15.20
2019-05-18T06:35:10.057Z,15.40
2019-05-18T06:36:42.144Z,15.50
2019-05-18T06:38:15.146Z,15.70
2019-05-18T06:39:47.321Z,15.90
2019-05-18T06:41:19.459Z,16.20
2019-05-18T06:42:51.608Z,16.50
2019-05-18T06:44:23.912Z,17.00
2019-05-18T06:45:56.053Z,17.60
2019-05-18T06:47:28.554Z,18.10
2019-05-18T06:49:00.948Z,18.30
2019-05-18T06:50:33.185Z,18.70
2019-05-18T06:52:05.464Z,19.00
2019-05-18T06:53:37.696Z,18.80
2019-05-18T06:55:09.971Z,18.70
2019-05-18T06:56:42.513Z,18.50
2019-05-18T06:58:15.042Z,18.30
2019-05-18T06:59:47.552Z,18.10
2019-05-18T07:01:19.689Z,17.90
2019-05-18T07:02:51.967Z,17.80
2019-05-18T07:04:24.287Z,17.60
2019-05-18T07:05:56.558Z,17.50
2019-05-18T07:07:28.623Z,17.30
2019-05-18T07:09:00.868Z,17.30
2019-05-18T07:10:32.944Z,17.20
2019-05-18T07:12:05.210Z,17.20
2019-05-18T07:13:37.618Z,17.20
2019-05-18T07:15:10.161Z,17.80
2019-05-18T07:16:42.409Z,18.70
2019-05-18T07:18:14.677Z,19.30
2019-05-18T07:19:46.827Z,19.80
2019-05-18T07:21:22.447Z,20.40
2019-05-18T07:22:53.299Z,21.00
2019-05-18T07:24:25.601Z,21.50
2019-05-18T07:25:57.738Z,22.10
2019-05-18T07:27:29.886Z,22.60
2019-05-18T07:29:05.616Z,23.00
2019-05-18T07:30:36.284Z,23.10
2019-05-18T07:32:08.587Z,22.90
2019-05-18T07:33:40.788Z,22.60
2019-05-18T07:35:13.647Z,22.40
2019-05-18T07:36:45.874Z,22.00
2019-05-18T07:38:17.971Z,21.80
2019-05-18T07:39:50.209Z,21.50
2019-05-18T07:41:22.478Z,21.30
2019-05-18T07:42:54.562Z,21.00
2019-05-18T07:44:26.853Z,20.60
2019-05-18T07:45:59.129Z,20.30
2019-05-18T07:47:31.366Z,20.20
2019-05-18T07:49:03.501Z,20.20
2019-05-18T07:50:35.933Z,20.20
2019-05-18T07:52:08.136Z,20.10
2019-05-18T07:53:40.226Z,19.90
2019-05-18T07:55:12.703Z,19.70
2019-05-18T07:56:44.797Z,19.60
2019-05-18T07:58:17.028Z,19.40
2019-05-18T07:59:49.360Z,19.20
2019-05-18T08:01:21.459Z,19.10
2019-05-18T08:02:53.609Z,19.30
2019-05-18T08:04:25.874Z,19.80
2019-05-18T08:05:58.025Z,20.60
2019-05-18T08:07:30.239Z,21.20
2019-05-18T08:09:04.246Z,21.50
2019-05-18T08:10:37.403Z,21.40
2019-05-18T08:12:09.588Z,21.30
2019-05-18T08:13:41.838Z,21.00
2019-05-18T08:15:14.171Z,20.80
2019-05-18T08:16:46.448Z,20.50
2019-05-18T08:18:18.726Z,20.40
2019-05-18T08:19:50.889Z,20.30
2019-05-18T08:21:23.129Z,20.30
2019-05-18T08:22:55.256Z,20.20
2019-05-18T08:24:27.380Z,20.10
2019-05-18T08:25:59.642Z,20.10
2019-05-18T08:27:31.846Z,20.10
2019-05-18T08:29:03.935Z,20.10
2019-05-18T08:30:36.070Z,20.30
2019-05-18T08:32:08.307Z,20.40
2019-05-18T08:33:40.428Z,20.50
2019-05-18T08:35:13.032Z,20.70
2019-05-18T08:36:45.213Z,21.00
2019-05-18T08:38:17.414Z,21.40
2019-05-18T08:39:49.654Z,21.90
2019-05-18T08:41:21.734Z,22.40
2019-05-18T08:42:54.010Z,22.90
2019-05-18T08:44:26.148Z,23.30
2019-05-18T08:45:58.445Z,23.60
2019-05-18T08:47:30.800Z,23.60
2019-05-18T08:49:03.372Z,23.50
2019-05-18T08:50:35.488Z,23.50
2019-05-18T08:52:08.732Z,23.50
2019-05-18T08:53:41.104Z,23.50
2019-05-18T08:55:13.556Z,23.60
2019-05-18T08:56:45.822Z,23.80
2019-05-18T08:58:18.069Z,23.90
2019-05-18T08:59:50.230Z,24.10
2019-05-18T09:01:22.326Z,24.30
2019-05-18T09:02:54.451Z,24.40
2019-05-18T09:04:26.709Z,24.50
2019-05-18T09:05:58.929Z,24.80
2019-05-18T09:07:31.063Z,24.80
2019-05-18T09:09:05.123Z,24.90
2019-05-18T09:10:37.404Z,24.90
2019-05-18T09:12:09.519Z,24.90
2019-05-18T09:13:41.659Z,24.80
2019-05-18T09:15:15.166Z,24.70
2019-05-18T09:16:47.372Z,24.50
2019-05-18T09:18:19.614Z,24.30
2019-05-18T09:19:52.341Z,24.10
2019-05-18T09:21:26.100Z,23.80
2019-05-18T09:22:58.473Z,23.60
2019-05-18T09:24:30.712Z,23.30
2019-05-18T09:26:02.964Z,23.10
2019-05-18T09:27:35.202Z,22.90
2019-05-18T09:29:07.516Z,22.60
2019-05-18T09:30:41.272Z,22.50
2019-05-18T09:32:13.740Z,22.30
2019-05-18T09:33:46.011Z,22.20
2019-05-18T09:35:18.378Z,22.00
2019-05-18T09:36:50.608Z,21.90
2019-05-18T09:38:22.696Z,21.70
2019-05-18T09:39:54.811Z,21.60
2019-05-18T09:41:27.049Z,21.50
2019-05-18T09:42:59.172Z,21.40
2019-05-18T09:44:31.275Z,21.30
2019-05-18T09:46:03.396Z,21.20
2019-05-18T09:47:35.734Z,21.10
2019-05-18T09:49:08.024Z,21.00
2019-05-18T09:50:40.169Z,20.90
2019-05-18T09:52:12.443Z,20.80
2019-05-18T09:53:51.458Z,20.80
2019-05-18T09:55:18.646Z,20.70
2019-05-18T09:56:50.933Z,20.80
2019-05-18T09:58:23.075Z,21.00
2019-05-18T09:59:58.943Z,21.50
2019-05-18T10:01:31.532Z,21.90
2019-05-18T10:03:03.779Z,22.50
2019-05-18T10:04:36.182Z,23.00
2019-05-18T10:06:08.472Z,23.50
2019-05-18T10:07:40.625Z,23.90
2019-05-18T10:09:12.897Z,24.20
2019-05-18T10:10:49.176Z,24.60
2019-05-18T10:12:21.327Z,24.80
2019-05-18T10:13:53.552Z,25.00
2019-05-18T10:15:25.929Z,25.10
2019-05-18T10:16:58.173Z,25.20
2019-05-18T10:18:30.347Z,25.40
2019-05-18T10:20:02.758Z,25.60
2019-05-18T10:21:35.069Z,25.90
2019-05-18T10:23:12.889Z,26.10
2019-05-18T10:24:41.276Z,26.40
2019-05-18T10:26:13.349Z,26.50
2019-05-18T10:27:45.465Z,26.60
2019-05-18T10:29:17.686Z,26.70
2019-05-18T10:30:49.943Z,26.80
2019-05-18T10:32:22.206Z,26.90
2019-05-18T10:33:54.485Z,27.20
2019-05-18T10:35:26.745Z,27.20
2019-05-18T10:36:58.971Z,27.00
2019-05-18T10:38:31.081Z,26.80
2019-05-18T10:40:04.071Z,26.50
2019-05-18T10:41:36.353Z,26.20
2019-05-18T10:43:08.437Z,26.00
2019-05-18T10:44:40.680Z,25.80
2019-05-18T10:46:12.849Z,25.70
2019-05-18T10:47:44.978Z,25.60
2019-05-18T10:49:17.226Z,25.50
2019-05-18T10:50:49.448Z,25.50
2019-05-18T10:52:21.550Z,25.50
2019-05-18T10:53:53.638Z,25.60
2019-05-18T10:55:25.773Z,25.70
2019-05-18T10:56:57.988Z,25.80
2019-05-18T10:58:30.264Z,25.90
2019-05-18T11:00:03.774Z,26.10
2019-05-18T11:01:36.091Z,26.20
2019-05-18T11:03:08.230Z,26.10
2019-05-18T11:04:40.356Z,26.10
2019-05-18T11:06:12.526Z,26.10
2019-05-18T11:07:44.685Z,26.10
2019-05-18T11:09:17.008Z,26.10
2019-05-18T11:10:49.238Z,26.10
2019-05-18T11:12:21.594Z,26.10
2019-05-18T11:13:53.848Z,26.20
2019-05-18T11:15:25.956Z,26.20
2019-05-18T11:16:58.065Z,26.20
2019-05-18T11:18:30.479Z,26.20
2019-05-18T11:20:03.283Z,26.10
2019-05-18T11:21:35.675Z,26.00
2019-05-18T11:23:08.061Z,26.00
2019-05-18T11:24:40.350Z,25.90
2019-05-18T11:26:12.754Z,25.90
2019-05-18T11:27:45.058Z,25.80
2019-05-18T11:29:17.478Z,25.80
2019-05-18T11:30:49.569Z,25.80
2019-05-18T11:32:21.990Z,25.70
2019-05-18T11:33:54.210Z,25.70
2019-05-18T11:35:26.455Z,25.60
2019-05-18T11:36:58.598Z,25.40
2019-05-18T11:38:30.779Z,25.30
2019-05-18T11:40:03.246Z,25.20
2019-05-18T11:41:35.735Z,25.10
2019-05-18T11:43:07.898Z,25.10
2019-05-18T11:44:40.214Z,25.10
2019-05-18T11:46:12.481Z,25.10
2019-05-18T11:47:44.609Z,25.20
2019-05-18T11:49:16.764Z,25.20
2019-05-18T11:50:49.119Z,25.20
2019-05-18T11:52:21.385Z,25.10
2019-05-18T11:53:58.467Z,25.10
2019-05-18T11:55:27.692Z,25.00
2019-05-18T11:57:00.138Z,24.90
2019-05-18T11:58:32.417Z,24.80
2019-05-18T12:00:06.335Z,24.70
2019-05-18T12:01:39.150Z,24.60
2019-05-18T12:03:11.473Z,24.50
2019-05-18T12:04:43.615Z,24.40
2019-05-18T12:06:15.907Z,24.40
2019-05-18T12:07:48.023Z,24.30
2019-05-18T12:09:20.429Z,24.30
2019-05-18T12:10:52.531Z,24.20
2019-05-18T12:12:24.835Z,24.20
2019-05-18T12:13:57.090Z,24.20
2019-05-18T12:15:29.436Z,24.20
2019-05-18T12:17:01.557Z,24.10
2019-05-18T12:18:33.756Z,24.00
2019-05-18T12:20:07.366Z,24.10
2019-05-18T12:21:39.625Z,24.10
2019-05-18T12:23:12.048Z,24.10
2019-05-18T12:24:44.407Z,24.10
2019-05-18T12:26:16.647Z,24.10
2019-05-18T12:27:49.049Z,24.00
2019-05-18T12:29:21.344Z,24.00
2019-05-18T12:30:53.628Z,24.00
2019-05-18T12:32:26.044Z,24.00
2019-05-18T12:33:58.325Z,24.00
2019-05-18T12:35:30.588Z,24.00
2019-05-18T12:37:02.757Z,24.00
2019-05-18T12:38:35.088Z,24.00
2019-05-18T12:40:09.171Z,24.00
2019-05-18T12:41:41.512Z,24.00
2019-05-18T12:43:13.822Z,24.10
2019-05-18T12:44:46.137Z,24.10
2019-05-18T12:46:18.372Z,24.00
2019-05-18T12:47:50.577Z,23.90
2019-05-18T12:49:22.835Z,23.80
2019-05-18T12:50:55.117Z,23.80
2019-05-18T12:52:27.355Z,23.80
2019-05-18T12:53:59.472Z,23.80
2019-05-18T12:55:31.721Z,23.80
2019-05-18T12:57:04.040Z,23.90
2019-05-18T12:58:37.695Z,23.90
2019-05-18T13:00:11.230Z,23.90
2019-05-18T13:01:43.555Z,24.00
2019-05-18T13:03:15.989Z,24.10
2019-05-18T13:04:48.136Z,24.20
2019-05-18T13:06:20.433Z,24.20
2019-05-18T13:07:52.716Z,24.20
2019-05-18T13:09:25.020Z,24.20
2019-05-18T13:10:57.387Z,24.30
2019-05-18T13:12:30.071Z,24.30
2019-05-18T13:14:02.286Z,24.30
2019-05-18T13:15:34.693Z,24.30
2019-05-18T13:17:07.003Z,24.30
2019-05-18T13:18:39.094Z,24.30
2019-05-18T13:20:12.264Z,24.30
2019-05-18T13:21:44.489Z,24.30
2019-05-18T13:23:16.820Z,24.30
2019-05-18T13:24:52.030Z,24.30
2019-05-18T13:26:23.067Z,24.30
2019-05-18T13:27:55.244Z,24.30
2019-05-18T13:29:27.592Z,24.30
2019-05-18T13:30:59.929Z,24.20
2019-05-18T13:32:32.056Z,24.20
2019-05-18T13:34:04.125Z,24.20
2019-05-18T13:35:36.411Z,24.20
2019-05-18T13:37:08.681Z,24.10
2019-05-18T13:38:40.756Z,24.10
2019-05-18T13:40:13.542Z,24.10
2019-05-18T13:41:45.641Z,24.10
2019-05-18T13:43:17.860Z,24.00
2019-05-18T13:44:49.958Z,24.00
2019-05-18T13:46:22.213Z,24.00
2019-05-18T13:47:54.309Z,24.00
2019-05-18T13:49:26.612Z,24.00
2019-05-18T13:50:58.819Z,24.10
2019-05-18T13:52:31.074Z,24.10
2019-05-18T13:54:03.269Z,24.10
2019-05-18T13:55:35.507Z,24.10
2019-05-18T13:57:07.644Z,24.10
2019-05-18T13:58:39.850Z,24.10
2019-05-18T14:00:13.418Z,24.00
2019-05-18T14:01:45.554Z,24.00
2019-05-18T14:03:17.661Z,23.90
2019-05-18T14:04:49.799Z,23.90
2019-05-18T14:06:22.000Z,23.80
2019-05-18T14:07:54.137Z,23.80
2019-05-18T14:09:26.293Z,23.80
2019-05-18T14:10:58.382Z,23.70
2019-05-18T14:12:30.659Z,23.60
2019-05-18T14:14:02.936Z,23.60
2019-05-18T14:15:35.210Z,23.50
2019-05-18T14:17:07.450Z,23.40
2019-05-18T14:18:39.560Z,23.10
2019-05-18T14:20:12.464Z,22.90
2019-05-18T14:21:44.758Z,22.70
2019-05-18T14:23:17.047Z,22.40
2019-05-18T14:24:49.369Z,22.20
2019-05-18T14:26:21.614Z,22.00
2019-05-18T14:27:53.689Z,21.80
2019-05-18T14:29:25.939Z,21.50
2019-05-18T14:30:58.220Z,21.40
2019-05-18T14:32:30.486Z,21.30
2019-05-18T14:34:02.586Z,21.20
2019-05-18T14:35:35.136Z,21.10
2019-05-18T14:37:07.404Z,21.00
2019-05-18T14:38:39.676Z,20.90
2019-05-18T14:40:12.511Z,20.80
2019-05-18T14:41:44.826Z,20.70
2019-05-18T14:43:17.188Z,20.70
2019-05-18T14:44:49.359Z,20.60
2019-05-18T14:46:21.513Z,20.60
2019-05-18T14:47:54.537Z,20.50
2019-05-18T14:49:27.155Z,20.60
2019-05-18T14:50:59.396Z,20.60
2019-05-18T14:52:31.630Z,20.60
2019-05-18T14:54:03.948Z,20.60
2019-05-18T14:55:36.063Z,20.60
2019-05-18T14:57:08.156Z,20.60
2019-05-18T14:58:40.419Z,20.60
2019-05-18T15:00:13.483Z,20.50
2019-05-18T15:01:45.734Z,20.50
2019-05-18T15:03:17.990Z,20.40
2019-05-18T15:04:53.107Z,20.50
2019-05-18T15:06:24.664Z,20.60
2019-05-18T15:07:57.086Z,20.60
2019-05-18T15:09:29.469Z,20.60
2019-05-18T15:11:01.718Z,20.60
2019-05-18T15:12:33.985Z,20.60
2019-05-18T15:14:06.240Z,20.60
2019-05-18T15:15:38.336Z,20.70
2019-05-18T15:17:10.567Z,20.60
2019-05-18T15:18:42.850Z,20.70
2019-05-18T15:20:15.227Z,20.70
2019-05-18T15:21:47.611Z,20.70
2019-05-18T15:23:19.873Z,20.80
2019-05-18T15:24:52.228Z,20.80
2019-05-18T15:26:25.998Z,20.80
2019-05-18T15:27:58.160Z,20.90
2019-05-18T15:29:30.348Z,20.90
2019-05-18T15:31:02.763Z,21.00
2019-05-18T15:32:35.179Z,21.10
2019-05-18T15:34:07.589Z,21.10
2019-05-18T15:35:39.939Z,21.10
2019-05-18T15:37:12.026Z,21.10
2019-05-18T15:38:44.313Z,21.10
2019-05-18T15:40:16.498Z,21.10
2019-05-18T15:41:48.618Z,21.10
2019-05-18T15:43:20.791Z,21.10
2019-05-18T15:44:52.962Z,21.10
2019-05-18T15:46:25.195Z,21.10
2019-05-18T15:47:57.522Z,21.00
2019-05-18T15:49:29.653Z,21.00
2019-05-18T15:51:01.907Z,21.00
2019-05-18T15:52:34.124Z,21.00
2019-05-18T15:54:06.385Z,21.10
2019-05-18T15:55:38.682Z,21.10
2019-05-18T15:57:10.937Z,21.10
2019-05-18T15:58:43.209Z,21.20
2019-05-18T16:00:15.604Z,21.20
2019-05-18T16:01:47.791Z,21.20
2019-05-18T16:03:20.113Z,21.30
2019-05-18T16:04:52.279Z,21.30
2019-05-18T16:06:24.631Z,21.30
2019-05-18T16:07:56.992Z,21.30
2019-05-18T16:09:29.212Z,21.30
2019-05-18T16:11:01.485Z,21.40
2019-05-18T16:12:33.608Z,21.40
2019-05-18T16:14:05.970Z,21.40
2019-05-18T16:15:38.242Z,21.40
2019-05-18T16:17:10.589Z,21.40
2019-05-18T16:18:42.770Z,21.40
2019-05-18T16:20:15.046Z,21.40
2019-05-18T16:21:47.292Z,21.30
2019-05-18T16:23:19.604Z,21.30
2019-05-18T16:24:52.141Z,21.30
2019-05-18T16:26:24.520Z,21.30
2019-05-18T16:27:56.839Z,21.20
2019-05-18T16:29:29.067Z,21.20
2019-05-18T16:31:01.433Z,21.20
2019-05-18T16:32:33.636Z,21.20
2019-05-18T16:34:05.778Z,21.20
2019-05-18T16:35:38.094Z,21.20
2019-05-18T16:37:10.314Z,21.20
2019-05-18T16:38:42.484Z,21.20
2019-05-18T16:40:14.901Z,21.10
2019-05-18T16:41:47.229Z,21.10
2019-05-18T16:43:19.605Z,21.10
2019-05-18T16:44:51.810Z,21.10
2019-05-18T16:46:24.219Z,21.10
2019-05-18T16:47:56.363Z,21.10
2019-05-18T16:49:28.620Z,21.10
2019-05-18T16:51:00.744Z,21.20
2019-05-18T16:52:32.974Z,21.10
2019-05-18T16:54:05.273Z,21.10
2019-05-18T16:55:37.606Z,21.10
2019-05-18T16:57:09.724Z,21.10
2019-05-18T16:58:41.818Z,21.10
2019-05-18T17:00:16.241Z,21.00
2019-05-18T17:01:48.919Z,21.00
2019-05-18T17:03:21.021Z,21.00
2019-05-18T17:04:53.317Z,20.90
2019-05-18T17:06:25.638Z,20.90
2019-05-18T17:07:57.885Z,20.90
2019-05-18T17:09:30.055Z,20.90
2019-05-18T17:11:02.374Z,20.90
2019-05-18T17:12:34.620Z,20.90
2019-05-18T17:14:06.882Z,20.90
2019-05-18T17:15:39.132Z,20.90
2019-05-18T17:17:11.338Z,20.90
2019-05-18T17:18:43.589Z,20.90
2019-05-18T17:20:15.895Z,20.80
2019-05-18T17:21:48.037Z,20.80
2019-05-18T17:23:20.258Z,20.80
2019-05-18T17:24:52.527Z,20.80
2019-05-18T17:26:24.768Z,20.70
2019-05-18T17:27:56.976Z,20.70
2019-05-18T17:29:29.313Z,20.70
2019-05-18T17:31:01.689Z,20.70
2019-05-18T17:32:33.884Z,20.70
2019-05-18T17:34:06.009Z,20.60
2019-05-18T17:35:38.126Z,20.60
2019-05-18T17:37:10.254Z,20.60
2019-05-18T17:38:42.520Z,20.60
2019-05-18T17:40:15.671Z,20.60
2019-05-18T17:41:47.977Z,20.50
2019-05-18T17:43:20.094Z,20.50
2019-05-18T17:44:52.175Z,20.50
2019-05-18T17:46:24.267Z,20.50
2019-05-18T17:47:56.566Z,20.50
2019-05-18T17:49:28.708Z,20.50
2019-05-18T17:51:00.861Z,20.50
2019-05-18T17:52:33.100Z,20.50
2019-05-18T17:54:05.275Z,20.50
2019-05-18T17:55:37.394Z,20.50
2019-05-18T17:57:09.552Z,20.50
2019-05-18T17:58:41.676Z,20.50
2019-05-18T18:00:14.011Z,20.60
2019-05-18T18:01:46.290Z,20.50
2019-05-18T18:03:18.520Z,20.50
2019-05-18T18:04:54.102Z,20.50
2019-05-18T18:06:25.026Z,20.50
2019-05-18T18:07:57.305Z,20.50
2019-05-18T18:09:29.591Z,20.50
2019-05-18T18:11:01.708Z,20.50
2019-05-18T18:12:33.840Z,20.40
2019-05-18T18:14:06.385Z,20.20
2019-05-18T18:15:38.654Z,20.00
2019-05-18T18:17:10.768Z,19.90
2019-05-18T18:18:43.103Z,19.80
2019-05-18T18:20:16.023Z,19.70
2019-05-18T18:21:48.203Z,19.60
2019-05-18T18:23:23.042Z,19.50
2019-05-18T18:24:55.179Z,19.30
2019-05-18T18:26:27.376Z,19.10
2019-05-18T18:27:59.609Z,18.90
2019-05-18T18:29:31.862Z,18.60
2019-05-18T18:31:04.130Z,18.30
2019-05-18T18:32:36.363Z,17.90
2019-05-18T18:34:08.530Z,17.60
2019-05-18T18:35:40.607Z,17.40
2019-05-18T18:37:12.735Z,17.20
2019-05-18T18:38:44.900Z,17.00
2019-05-18T18:40:17.203Z,16.90
2019-05-18T18:41:49.457Z,16.80
2019-05-18T18:43:21.633Z,16.70
2019-05-18T18:44:53.933Z,16.70
2019-05-18T18:46:26.199Z,16.60
2019-05-18T18:47:58.446Z,16.60
2019-05-18T18:49:30.692Z,16.60
2019-05-18T18:51:03.028Z,16.60
2019-05-18T18:52:35.308Z,16.60
2019-05-18T18:54:07.508Z,16.50
2019-05-18T18:55:39.619Z,16.50
2019-05-18T18:57:11.871Z,16.50
2019-05-18T18:58:44.182Z,16.50
2019-05-18T19:00:16.383Z,16.40
2019-05-18T19:01:48.573Z,16.30
2019-05-18T19:03:20.762Z,16.30
2019-05-18T19:04:53.048Z,16.30
2019-05-18T19:06:25.399Z,16.20
2019-05-18T19:07:57.621Z,16.20
2019-05-18T19:09:29.759Z,16.20
2019-05-18T19:11:02.012Z,16.10
2019-05-18T19:12:34.294Z,16.10
2019-05-18T19:14:06.538Z,16.10
2019-05-18T19:15:38.658Z,16.00
2019-05-18T19:17:10.915Z,15.90
2019-05-18T19:18:43.186Z,15.90
2019-05-18T19:20:16.236Z,15.80
2019-05-18T19:21:48.354Z,15.80
2019-05-18T19:23:20.562Z,15.70
2019-05-18T19:24:55.666Z,15.60
2019-05-18T19:26:27.041Z,15.60
2019-05-18T19:27:59.311Z,15.60
2019-05-18T19:29:31.561Z,15.50
2019-05-18T19:31:03.791Z,15.50
2019-05-18T19:32:35.928Z,15.50
2019-05-18T19:34:08.157Z,15.40
2019-05-18T19:35:40.284Z,15.40
2019-05-18T19:37:12.554Z,15.40
2019-05-18T19:38:44.714Z,15.40
2019-05-18T19:40:17.067Z,15.40
2019-05-18T19:41:49.354Z,15.30
2019-05-18T19:43:21.581Z,15.40
2019-05-18T19:44:53.675Z,15.30
2019-05-18T19:46:25.917Z,15.40
2019-05-18T19:47:58.201Z,15.30
2019-05-18T19:49:30.496Z,15.30